createdAt,value
2024-02-23T00:01:13.415Z,1.05
2024-02-23T00:03:41.303Z,0.60
2024-02-23T00:06:10.332Z,0.63
2024-02-23T00:08:39.046Z,0.98
2024-02-23T00:11:07.507Z,0.60
2024-02-23T00:13:35.415Z,0.98
2024-02-23T00:16:03.239Z,0.97
2024-02-23T00:18:31.102Z,1.40
2024-02-23T00:20:58.932Z,0.80
2024-02-23T00:23:26.760Z,0.63
2024-02-23T00:25:54.565Z,0.35
2024-02-23T00:28:22.288Z,0.63
2024-02-23T00:30:50.062Z,1.00
2024-02-23T00:33:17.891Z,1.60
2024-02-23T00:35:45.783Z,1.40
2024-02-23T00:38:13.618Z,1.08
2024-02-23T00:40:41.413Z,0.80
2024-02-23T00:43:09.225Z,1.75
2024-02-23T00:45:37.129Z,0.80
2024-02-23T00:48:05.043Z,1.07
2024-02-23T00:50:32.823Z,0.70
2024-02-23T00:53:00.631Z,1.20
2024-02-23T00:55:28.369Z,1.07
2024-02-23T00:57:56.089Z,1.15
2024-02-23T01:00:24.665Z,0.90
2024-02-23T01:02:52.403Z,1.35
2024-02-23T01:05:20.296Z,0.87
2024-02-23T01:07:48.124Z,0.70
2024-02-23T01:10:15.816Z,0.95
2024-02-23T01:12:43.615Z,0.53
2024-02-23T01:15:11.489Z,0.45
2024-02-23T01:17:39.619Z,0.70
2024-02-23T01:20:07.938Z,0.80
2024-02-23T01:22:35.786Z,0.68
2024-02-23T01:25:03.612Z,1.95
2024-02-23T01:27:31.453Z,0.93
2024-02-23T01:29:59.188Z,1.30
2024-02-23T01:32:26.998Z,1.88
2024-02-23T01:34:54.849Z,1.42
2024-02-23T01:37:25.949Z,2.03
2024-02-23T01:39:53.845Z,3.50
2024-02-23T01:42:21.560Z,1.27
2024-02-23T01:44:49.313Z,1.67
2024-02-23T01:47:17.493Z,1.08
2024-02-23T01:49:45.889Z,1.45
2024-02-23T01:52:13.689Z,1.80
2024-02-23T01:54:41.489Z,1.33
2024-02-23T01:57:23.362Z,1.42
2024-02-23T01:59:57.024Z,1.88
2024-02-23T02:02:25.965Z,1.53
2024-02-23T02:04:53.796Z,1.50
2024-02-23T02:07:24.058Z,1.65
2024-02-23T02:09:53.506Z,1.07
2024-02-23T02:12:30.488Z,0.60
2024-02-23T02:14:58.338Z,1.27
2024-02-23T02:17:26.284Z,1.40
2024-02-23T02:19:54.799Z,1.67
2024-02-23T02:22:22.667Z,1.33
2024-02-23T02:24:50.440Z,1.20
2024-02-23T02:27:18.192Z,1.50
2024-02-23T02:29:45.991Z,2.30
2024-02-23T02:32:13.818Z,4.15
2024-02-23T02:34:41.606Z,1.80
2024-02-23T02:37:09.822Z,2.65
2024-02-23T02:39:37.942Z,2.20
2024-02-23T02:42:05.724Z,2.70
2024-02-23T02:44:33.582Z,3.00
2024-02-23T02:47:01.451Z,3.03
2024-02-23T02:49:29.180Z,1.50
2024-02-23T02:51:56.942Z,1.53
2024-02-23T02:54:24.685Z,0.85
2024-02-23T02:56:55.398Z,1.15
2024-02-23T02:59:25.730Z,1.50
2024-02-23T03:01:55.190Z,1.15
2024-02-23T03:04:23.003Z,1.33
2024-02-23T03:06:50.825Z,1.60
2024-02-23T03:09:18.578Z,1.97
2024-02-23T03:11:46.456Z,1.70
2024-02-23T03:14:14.310Z,1.75
2024-02-23T03:16:42.471Z,1.10
2024-02-23T03:19:10.339Z,1.73
2024-02-23T03:21:40.225Z,1.88
2024-02-23T03:24:08.255Z,1.63
2024-02-23T03:26:36.075Z,1.17
2024-02-23T03:29:04.198Z,1.30
2024-02-23T03:31:31.957Z,1.75
2024-02-23T03:33:59.799Z,0.73
2024-02-23T03:36:27.725Z,1.15
2024-02-23T03:38:55.459Z,1.30
2024-02-23T03:41:23.475Z,1.20
2024-02-23T03:43:51.266Z,0.90
2024-02-23T03:46:19.144Z,0.90
2024-02-23T03:48:47.003Z,0.90
2024-02-23T03:51:14.907Z,0.88
2024-02-23T03:53:42.658Z,0.63
2024-02-23T03:56:10.567Z,0.90
2024-02-23T03:58:38.449Z,1.47
2024-02-23T04:01:06.294Z,1.17
2024-02-23T04:03:34.198Z,1.23
2024-02-23T04:06:02.030Z,1.10
2024-02-23T04:08:29.803Z,1.45
2024-02-23T04:10:57.702Z,1.23
2024-02-23T04:13:25.556Z,1.27
2024-02-23T04:15:53.326Z,1.40
2024-02-23T04:18:21.245Z,0.82
2024-02-23T04:20:48.978Z,0.75
2024-02-23T04:23:16.764Z,1.23
2024-02-23T04:25:44.577Z,0.93
2024-02-23T04:28:12.325Z,0.80
2024-02-23T04:30:40.047Z,0.77
2024-02-23T04:33:08.084Z,0.60
2024-02-23T04:35:36.121Z,0.63
2024-02-23T04:38:03.906Z,1.30
2024-02-23T04:40:31.673Z,0.93
2024-02-23T04:42:59.439Z,0.90
2024-02-23T04:45:27.209Z,0.50
2024-02-23T04:47:54.929Z,0.50
2024-02-23T04:50:22.753Z,0.70
2024-02-23T04:52:51.543Z,0.95
2024-02-23T04:55:19.377Z,0.50
2024-02-23T04:57:47.115Z,0.70
2024-02-23T05:00:15.158Z,0.90
2024-02-23T05:02:42.969Z,1.37
2024-02-23T05:05:10.861Z,0.77
2024-02-23T05:07:38.657Z,1.23
2024-02-23T05:10:06.831Z,1.10
2024-02-23T05:12:34.575Z,0.80
2024-02-23T05:15:02.351Z,0.90
2024-02-23T05:17:30.249Z,0.70
2024-02-23T05:19:58.108Z,0.87
2024-02-23T05:22:25.985Z,0.70
2024-02-23T05:24:53.736Z,0.73
2024-02-23T05:27:21.498Z,1.03
2024-02-23T05:29:49.990Z,0.73
2024-02-23T05:32:18.499Z,0.82
2024-02-23T05:34:46.435Z,0.90
2024-02-23T05:37:14.220Z,0.70
2024-02-23T05:39:42.006Z,1.13
2024-02-23T05:42:09.717Z,0.52
2024-02-23T05:44:37.563Z,1.03
2024-02-23T05:47:06.313Z,0.90
2024-02-23T05:49:34.458Z,0.60
2024-02-23T05:52:02.262Z,0.90
2024-02-23T05:54:30.009Z,0.80
2024-02-23T05:56:57.781Z,0.85
2024-02-23T05:59:25.599Z,1.05
2024-02-23T06:01:58.026Z,1.10
2024-02-23T06:04:26.262Z,0.75
2024-02-23T06:06:54.153Z,0.73
2024-02-23T06:09:21.982Z,0.90
2024-02-23T06:11:49.871Z,0.98
2024-02-23T06:14:17.714Z,0.75
2024-02-23T06:16:45.483Z,0.70
2024-02-23T06:19:13.264Z,0.80
2024-02-23T06:21:40.995Z,1.05
2024-02-23T06:24:10.049Z,1.02
2024-02-23T06:26:37.870Z,1.30
2024-02-23T06:29:07.163Z,0.65
2024-02-23T06:31:35.890Z,1.10
2024-02-23T06:34:03.940Z,0.70
2024-02-23T06:36:31.764Z,0.90
2024-02-23T06:38:59.507Z,1.00
2024-02-23T06:41:27.712Z,1.50
2024-02-23T06:43:55.607Z,1.40
2024-02-23T06:46:23.608Z,1.35
2024-02-23T06:48:51.578Z,1.92
2024-02-23T06:51:21.743Z,1.70
2024-02-23T06:53:49.670Z,1.92
2024-02-23T06:56:17.644Z,2.10
2024-02-23T06:58:45.529Z,2.23
2024-02-23T07:01:14.275Z,2.17
2024-02-23T07:03:46.576Z,2.20
2024-02-23T07:06:14.614Z,2.27
2024-02-23T07:08:42.572Z,2.95
2024-02-23T07:11:10.637Z,2.08
2024-02-23T07:13:38.610Z,2.42
2024-02-23T07:16:06.759Z,1.90
2024-02-23T07:18:34.910Z,1.55
2024-02-23T07:21:03.252Z,2.08
2024-02-23T07:23:31.338Z,2.93
2024-02-23T07:25:59.283Z,2.35
2024-02-23T07:28:27.148Z,2.08
2024-02-23T07:30:55.117Z,2.13
2024-02-23T07:33:23.082Z,2.30
2024-02-23T07:35:51.072Z,2.58
2024-02-23T07:38:21.765Z,2.65
2024-02-23T07:40:49.665Z,2.07
2024-02-23T07:43:18.045Z,3.20
2024-02-23T07:45:45.996Z,2.08
2024-02-23T07:48:14.042Z,2.57
2024-02-23T07:50:41.976Z,2.60
2024-02-23T07:53:09.928Z,3.60
2024-02-23T07:55:37.848Z,2.87
2024-02-23T07:58:05.768Z,3.28
2024-02-23T08:00:35.850Z,2.35
2024-02-23T08:03:03.840Z,2.20
2024-02-23T08:05:31.801Z,2.50
2024-02-23T08:07:59.850Z,2.15
2024-02-23T08:10:30.788Z,2.10
2024-02-23T08:12:58.725Z,2.50
2024-02-23T08:15:26.612Z,2.42
2024-02-23T08:17:54.655Z,2.17
2024-02-23T08:20:22.687Z,2.13
2024-02-23T08:22:50.558Z,2.03
2024-02-23T08:25:18.439Z,1.77
2024-02-23T08:27:46.308Z,1.88
2024-02-23T08:30:15.457Z,2.13
2024-02-23T08:32:43.544Z,2.30
2024-02-23T08:35:11.657Z,1.73
2024-02-23T08:37:39.900Z,2.23
2024-02-23T08:40:08.923Z,1.75
2024-02-23T08:42:36.772Z,1.77
2024-02-23T08:45:05.590Z,2.10
2024-02-23T08:47:35.585Z,2.03
2024-02-23T08:50:04.238Z,2.30
2024-02-23T09:01:45.766Z,2.03
2024-02-23T09:04:22.892Z,1.33
2024-02-23T09:06:52.822Z,1.53
2024-02-23T09:09:20.796Z,1.75
2024-02-23T09:11:49.349Z,1.20
2024-02-23T09:14:17.361Z,1.17
2024-02-23T09:16:47.351Z,1.10
2024-02-23T09:19:15.274Z,1.10
2024-02-23T09:21:43.147Z,1.33
2024-02-23T09:24:11.021Z,1.03
2024-02-23T09:26:39.004Z,0.75
2024-02-23T09:29:06.982Z,0.80
2024-02-23T09:31:34.901Z,0.60
2024-02-23T09:34:02.846Z,0.90
2024-02-23T09:36:32.886Z,1.50
2024-02-23T09:39:03.189Z,0.93
2024-02-23T09:41:31.057Z,0.77
2024-02-23T09:44:00.282Z,1.00
2024-02-23T09:46:28.192Z,0.90
2024-02-23T09:48:56.140Z,0.90
2024-02-23T09:56:03.733Z,0.57
2024-02-23T09:58:31.972Z,0.70
2024-02-23T10:01:00.231Z,0.75
2024-02-23T10:03:31.680Z,1.15
2024-02-23T10:05:59.701Z,0.80
2024-02-23T10:08:27.789Z,0.60
2024-02-23T10:10:56.934Z,0.73
2024-02-23T10:13:28.032Z,0.85
2024-02-23T10:16:05.917Z,0.80
2024-02-23T10:18:42.623Z,0.90
2024-02-23T10:21:10.554Z,0.60
2024-02-23T10:23:38.977Z,0.60
2024-02-23T10:26:07.701Z,0.80
2024-02-23T10:28:36.668Z,0.63
2024-02-23T10:31:04.640Z,0.50
2024-02-23T10:33:32.803Z,0.73
2024-02-23T10:36:00.830Z,0.80
2024-02-23T10:38:30.083Z,0.93
2024-02-23T10:40:58.277Z,0.63
2024-02-23T10:43:32.761Z,0.68
2024-02-23T10:46:03.962Z,0.60
2024-02-23T10:48:31.858Z,0.63
2024-02-23T10:51:00.179Z,0.63
2024-02-23T10:53:31.077Z,0.50
2024-02-23T10:56:02.371Z,0.70
2024-02-23T10:58:30.353Z,0.80
2024-02-23T11:01:09.973Z,0.52
2024-02-23T11:03:38.826Z,0.50
2024-02-23T11:06:10.242Z,0.60
2024-02-23T11:08:38.568Z,0.75
2024-02-23T11:11:12.159Z,0.70
2024-02-23T11:13:40.833Z,1.00
2024-02-23T11:16:10.432Z,0.60
2024-02-23T11:18:38.973Z,0.65
2024-02-23T11:21:07.620Z,0.40
2024-02-23T11:23:45.952Z,0.45
2024-02-23T11:26:14.591Z,0.93
2024-02-23T11:28:45.852Z,0.40
2024-02-23T11:31:17.302Z,0.67
2024-02-23T11:33:54.713Z,0.50
2024-02-23T11:36:26.334Z,0.70
2024-02-23T11:38:56.287Z,0.70
2024-02-23T11:41:25.722Z,0.60
2024-02-23T11:43:54.046Z,0.40
2024-02-23T11:46:22.223Z,0.40
2024-02-23T11:48:57.397Z,0.63
2024-02-23T11:51:28.074Z,0.70
2024-02-23T11:53:57.393Z,0.40
2024-02-23T11:56:25.443Z,0.30
2024-02-23T11:58:53.601Z,0.38
2024-02-23T12:01:21.724Z,0.70
2024-02-23T12:03:49.776Z,0.40
2024-02-23T12:06:17.861Z,0.50
2024-02-23T12:08:46.518Z,0.88
2024-02-23T12:11:15.354Z,0.50
2024-02-23T12:13:46.454Z,0.57
2024-02-23T12:16:14.324Z,0.70
2024-02-23T12:18:42.127Z,0.70
2024-02-23T12:21:10.904Z,0.50
2024-02-23T12:23:45.808Z,0.43
2024-02-23T12:26:18.083Z,0.70
2024-02-23T12:28:46.914Z,1.23
2024-02-23T12:31:15.183Z,0.40
2024-02-23T12:33:43.777Z,0.70
2024-02-23T12:36:14.633Z,0.57
2024-02-23T12:38:43.072Z,0.50
2024-02-23T12:41:14.083Z,0.50
2024-02-23T12:43:43.582Z,0.75
2024-02-23T12:46:15.507Z,0.80
2024-02-23T12:48:44.418Z,0.90
2024-02-23T12:51:13.578Z,0.70
2024-02-23T12:53:44.961Z,0.70
2024-02-23T12:56:15.247Z,0.60
2024-02-23T12:58:43.763Z,0.90
2024-02-23T13:01:11.989Z,0.50
2024-02-23T13:03:42.237Z,0.68
2024-02-23T13:06:10.140Z,0.50
2024-02-23T13:08:40.468Z,0.52
2024-02-23T13:11:09.854Z,0.47
2024-02-23T13:13:40.934Z,0.60
2024-02-23T13:16:09.764Z,0.60
2024-02-23T13:18:38.008Z,0.60
2024-02-23T13:21:06.299Z,0.70
2024-02-23T13:23:34.306Z,0.68
2024-02-23T13:26:04.624Z,0.70
2024-02-23T13:28:32.709Z,0.98
2024-02-23T13:31:00.836Z,0.60
2024-02-23T13:33:29.954Z,1.38
2024-02-23T13:35:57.992Z,0.80
2024-02-23T13:38:26.524Z,0.75
2024-02-23T13:40:57.987Z,0.50
2024-02-23T13:43:25.908Z,0.93
2024-02-23T13:45:54.343Z,0.85
2024-02-23T13:48:22.618Z,0.50
2024-02-23T13:50:50.805Z,0.97
2024-02-23T13:53:18.807Z,1.15
2024-02-23T13:55:47.170Z,0.65
2024-02-23T13:58:15.109Z,0.93
2024-02-23T14:00:43.165Z,0.83
2024-02-23T14:03:11.992Z,0.90
2024-02-23T14:05:39.988Z,0.80
2024-02-23T14:08:09.227Z,0.80
2024-02-23T14:10:37.247Z,1.20
2024-02-23T14:13:05.218Z,1.23
2024-02-23T14:15:33.513Z,1.17
2024-02-23T14:18:01.443Z,0.98
2024-02-23T14:20:29.537Z,1.00
2024-02-23T14:22:58.920Z,0.90
2024-02-23T14:25:26.843Z,0.80
2024-02-23T14:27:56.930Z,0.75
2024-02-23T14:30:25.036Z,0.57
2024-02-23T14:32:53.023Z,0.60
2024-02-23T14:35:21.905Z,0.40
2024-02-23T14:37:49.911Z,0.57
2024-02-23T14:40:17.811Z,0.37
2024-02-23T14:42:45.627Z,0.50
2024-02-23T14:45:14.464Z,0.20
2024-02-23T14:47:46.293Z,0.40
2024-02-23T14:50:14.833Z,0.60
2024-02-23T14:52:45.639Z,0.80
2024-02-23T14:55:14.470Z,0.68
2024-02-23T14:57:42.400Z,1.20
2024-02-23T15:00:10.796Z,0.88
2024-02-23T15:02:38.791Z,0.70
2024-02-23T15:05:07.430Z,0.70
2024-02-23T15:07:35.500Z,0.45
2024-02-23T15:10:09.376Z,0.50
2024-02-23T15:12:38.001Z,0.50
2024-02-23T15:15:08.071Z,0.70
2024-02-23T15:17:36.303Z,0.80
2024-02-23T15:20:04.613Z,0.52
2024-02-23T15:22:33.307Z,1.30
2024-02-23T15:25:01.548Z,0.55
2024-02-23T15:27:29.517Z,1.10
2024-02-23T15:29:57.420Z,1.00
2024-02-23T15:32:25.429Z,0.68
2024-02-23T15:34:53.353Z,0.65
2024-02-23T15:37:22.764Z,0.73
2024-02-23T15:39:50.641Z,1.33
2024-02-23T15:42:21.535Z,0.70
2024-02-23T15:44:49.799Z,0.82
2024-02-23T15:47:17.734Z,0.70
2024-02-23T15:50:07.729Z,0.65
2024-02-23T15:52:33.734Z,0.45
2024-02-23T15:55:01.653Z,0.63
2024-02-23T15:57:29.930Z,0.52
2024-02-23T16:00:03.205Z,1.02
2024-02-23T16:02:32.898Z,0.43
2024-02-23T16:05:00.986Z,0.73
2024-02-23T16:07:29.102Z,0.55
2024-02-23T16:09:57.265Z,0.70
2024-02-23T16:12:25.183Z,0.70
2024-02-23T16:14:53.101Z,0.60
2024-02-23T16:17:21.002Z,0.90
2024-02-23T16:19:48.907Z,0.90
2024-02-23T16:22:16.991Z,0.60
2024-02-23T16:24:46.392Z,0.93
2024-02-23T16:27:14.281Z,0.90
2024-02-23T16:29:42.168Z,0.90
2024-02-23T16:32:10.164Z,0.80
2024-02-23T16:34:40.552Z,0.85
2024-02-23T16:37:08.446Z,0.63
2024-02-23T16:39:37.783Z,0.80
2024-02-23T16:42:06.713Z,0.85
2024-02-23T16:44:34.609Z,0.80
2024-02-23T16:47:03.608Z,0.90
2024-02-23T17:03:02.839Z,1.23
2024-02-23T17:05:30.853Z,1.10
2024-02-23T17:25:30.886Z,1.25
2024-02-23T17:36:51.554Z,1.07
2024-02-23T17:47:52.428Z,1.00
2024-02-23T18:12:49.871Z,0.55
2024-02-23T18:15:17.672Z,0.30
2024-02-23T18:23:06.692Z,0.32
2024-02-23T18:34:04.118Z,0.40
2024-02-23T18:44:59.787Z,1.00
2024-02-23T18:55:55.818Z,0.73
2024-02-23T19:11:22.245Z,1.20
2024-02-23T19:44:04.315Z,1.73
2024-02-23T20:16:40.921Z,1.67
2024-02-23T20:45:26.135Z,1.25
2024-02-23T20:56:21.844Z,1.58
2024-02-23T21:34:03.966Z,1.10
2024-02-23T21:45:16.784Z,1.20
2024-02-23T21:56:11.488Z,1.30
2024-02-23T22:24:47.840Z,1.70
2024-02-23T22:53:52.208Z,1.40
2024-02-23T23:10:08.880Z,1.30
2024-02-23T23:12:36.805Z,1.10
2024-02-23T23:15:04.800Z,1.00
2024-02-23T23:17:33.686Z,1.10
2024-02-23T23:20:06.085Z,0.90
2024-02-23T23:22:34.159Z,1.02
2024-02-23T23:25:01.956Z,0.90
2024-02-23T23:27:29.781Z,0.98
2024-02-23T23:30:00.470Z,0.82
2024-02-23T23:32:28.357Z,0.90
2024-02-23T23:34:56.170Z,1.30
2024-02-23T23:37:23.982Z,1.40
2024-02-23T23:39:51.841Z,0.83
2024-02-23T23:42:19.736Z,1.25
2024-02-23T23:44:47.616Z,1.50
2024-02-23T23:47:15.620Z,1.55
2024-02-23T23:49:43.791Z,1.00
2024-02-23T23:52:11.752Z,1.02
2024-02-23T23:54:39.616Z,1.02
2024-02-23T23:57:07.372Z,1.00
2024-02-23T23:59:35.749Z,1.30
